Latest Weather Observations for Moranbah Airport

IDQ60801

Issued at 12:02 pm EST Monday 11 December 2017 (issued every 30 minutes, with the page automatically refreshed every 10 minutes)

About weather observations | Map of weather stations | Latest weather observations for QLD | Other Formats
Station Details ID: 034035 Name: MORANBAH AIRPORT Lat: -22.06 Lon: 148.08 Height: 232.2 m
Data from the previous 72 hours. | See also: Recent months at Moranbah Airport
Date/Time
EST
Temp
°C
App
Temp
°C
Dew
Point
°C
Rel
Hum
%
Delta-T
°C
Wind Press
QNH
hPa
Press
MSL
hPa
Rain since
9am
mm
Dir  Spd
km/h
Gust
km/h
Spd
kts
Gust
kts
11/12:00pm 30.7 28.6 14.8 38 9.8 ESE 19 26 10 14 1014.4 1012.9 0.0
11/11:30am 30.0 28.7 15.7 42 8.9 E 17 32 9 17 1015.0 1013.5 0.0
11/11:00am 29.9 27.9 15.6 42 8.9 E 20 33 11 18 1015.5 1014.0 0.0
11/10:30am 29.3 28.0 16.8 47 7.9 E 19 30 10 16 1015.9 1014.4 0.0
11/10:00am 28.5 28.1 17.1 50 7.2 E 15 32 8 17 1016.0 1014.5 0.0
11/09:30am 27.4 25.7 17.3 54 6.4 ESE 22 32 12 17 1016.3 1014.8 0.0
11/09:00am 27.0 26.5 18.6 60 5.4 ESE 19 26 10 14 1016.4 1014.9 0.0
11/08:30am 25.2 24.5 18.2 65 4.5 SE 19 30 10 16 1016.4 1014.9 0.0
11/08:00am 24.9 24.3 18.8 69 3.9 ESE 20 28 11 15 1016.5 1015.0 0.0
11/07:30am 24.3 23.6 18.7 71 3.6 ESE 20 28 11 15 1016.2 1014.7 0.0
11/07:00am 22.9 23.0 18.4 76 2.9 SE 15 19 8 10 1016.0 1014.5 0.0
11/06:30am 22.3 22.7 18.9 81 2.2 ESE 15 19 8 10 1015.5 1014.0 0.0
11/06:00am 20.8 21.8 18.6 87 1.4 ESE 11 15 6 8 1015.4 1013.9 0.0
11/05:30am 20.1 20.2 17.5 85 1.6 SE 13 13 7 7 1015.2 1013.7 0.0
11/05:00am 20.7 21.1 18.1 85 1.6 SE 13 15 7 8 1015.3 1013.8 0.0
11/04:30am 20.7 21.4 17.9 84 1.7 ESE 11 13 6 7 1014.9 1013.4 0.0
11/04:00am 20.4 21.2 17.4 83 1.9 SE 9 11 5 6 1014.7 1013.2 0.0
11/03:30am 20.6 21.7 17.2 81 2.1 SE 7 9 4 5 1015.4 1013.9 0.0
11/03:00am 21.0 21.9 17.6 81 2.1 SSE 9 11 5 6 1015.4 1013.9 0.0
11/02:30am 20.9 21.7 17.3 80 2.2 S 9 11 5 6 1015.1 1013.6 0.0
11/02:00am 21.3 22.7 17.7 80 2.2 SE 7 9 4 5 1015.1 1013.6 0.0
11/01:30am 22.1 22.8 17.9 77 2.6 E 11 15 6 8 1015.0 1013.5 0.0
11/01:00am 22.5 23.3 18.1 76 2.8 E 11 13 6 7 1015.3 1013.8 0.0
11/12:30am 22.5 23.1 17.8 75 2.9 ESE 11 17 6 9 1015.7 1014.2 0.0
11/12:00am 22.3 22.8 17.4 74 3.0 ESE 11 13 6 7 1015.8 1014.3 0.0
 
Date/Time
EST
Temp
°C
App
Temp
°C
Dew
Point
°C
Rel
Hum
%
Delta-T
°C
Wind Press
QNH
hPa
Press
MSL
hPa
Rain since
9am
mm
Dir  Spd
km/h
Gust
km/h
Spd
kts
Gust
kts
10/11:30pm 22.7 23.0 16.9 70 3.6 E 11 15 6 8 1016.2 1014.7 0.0
10/11:00pm 23.6 22.6 16.6 65 4.3 E 17 20 9 11 1016.3 1014.8 0.0
10/10:30pm 24.0 22.7 16.8 64 4.5 E 19 24 10 13 1016.1 1014.6 0.0
10/10:00pm 24.3 23.4 16.8 63 4.7 ENE 17 20 9 11 1015.8 1014.3 0.0
10/09:30pm 24.9 22.5 16.3 59 5.3 ENE 24 32 13 17 1015.9 1014.4 0.0
10/09:00pm 25.5 23.0 16.1 56 5.8 ENE 24 35 13 19 1015.6 1014.1 0.0
10/08:30pm 26.1 23.1 16.9 57 5.8 ENE 28 39 15 21 1015.1 1013.6 0.0
10/08:00pm 27.0 24.0 16.9 54 6.3 ENE 28 37 15 20 1014.9 1013.4 0.0
10/07:30pm 27.9 25.2 15.5 46 7.7 ENE 24 35 13 19 1014.4 1012.9 0.0
10/07:00pm 28.7 25.2 14.5 42 8.7 NE 26 33 14 18 1013.6 1012.0 0.0
10/06:30pm 30.0 26.7 14.1 37 9.7 ENE 24 33 13 18 1013.0 1011.4 0.0
10/06:00pm 31.5 27.4 13.7 33 10.8 E 28 35 15 19 1012.5 1010.9 0.0
10/05:30pm 33.0 28.8 13.6 31 11.9 ESE 28 37 15 20 1012.1 1010.6 0.0
10/05:00pm 34.0 30.2 13.5 29 12.6 ESE 26 35 14 19 1011.9 1010.4 0.0
10/04:30pm 33.8 30.7 12.2 27 13.0 ESE 20 35 11 19 1011.9 1010.4 0.0
10/04:00pm 34.2 31.0 13.1 28 12.9 ESE 22 33 12 18 1012.0 1010.5 0.0
10/03:30pm 34.5 31.0 13.3 27 13.0 E 24 33 13 18 1012.1 1010.6 0.0
10/03:00pm 34.4 32.0 14.3 30 12.5 ESE 20 30 11 16 1012.4 1010.8 0.0
10/02:30pm 34.3 30.7 13.2 28 12.9 E 24 37 13 20 1012.8 1011.2 0.0
10/02:00pm 34.1 31.0 14.6 31 12.1 E 24 37 13 20 1013.1 1011.5 0.0
10/01:30pm 33.6 30.5 14.6 31 11.8 E 24 37 13 20 1013.4 1011.8 0.0
10/01:00pm 33.5 30.6 14.0 30 12.0 E 22 33 12 18 1013.8 1012.2 0.0
10/12:30pm 33.1 30.6 14.2 32 11.7 E 20 30 11 16 1014.1 1012.6 0.0
10/12:00pm 32.4 30.4 15.0 35 10.8 ESE 19 30 10 16 1014.5 1013.0 0.0
10/11:30am 31.8 29.5 13.1 32 11.3 E 17 28 9 15 1014.9 1013.4 0.0
10/11:00am 31.3 29.2 15.3 38 10.0 E 20 32 11 17 1015.4 1013.9 0.0
10/10:30am 30.0 27.9 16.1 43 8.7 SE 22 35 12 19 1015.7 1014.2 0.0
10/10:00am 29.0 27.9 15.2 43 8.5 E 15 28 8 15 1015.8 1014.3 0.0
10/09:30am 28.3 28.6 16.9 50 7.2 ESE 11 20 6 11 1016.1 1014.6 0.0
10/09:00am 27.8 27.0 17.0 51 6.8 E 17 24 9 13 1016.3 1014.8 0.0
10/08:30am 26.2 25.4 16.2 54 6.2 ESE 15 20 8 11 1016.4 1014.9 0.0
10/08:00am 25.8 24.7 16.4 56 5.8 ESE 17 22 9 12 1016.4 1014.9 0.0
10/07:30am 25.6 23.3 16.7 58 5.5 ESE 24 32 13 17 1016.6 1015.1 0.0
10/07:00am 24.0 22.4 16.5 63 4.6 ESE 20 28 11 15 1016.3 1014.8 0.0
10/06:30am 22.7 22.1 16.7 69 3.7 SE 15 20 8 11 1016.0 1014.5 0.0
10/06:00am 20.9 22.0 16.7 77 2.6 SE 6 9 3 5 1015.6 1014.1 0.0
10/05:30am 19.9 20.3 16.3 80 2.2 S 9 15 5 8 1015.3 1013.8 0.0
10/05:00am 20.0 19.5 16.8 82 2.0 SSE 15 17 8 9 1014.4 1012.9 0.0
10/04:30am 19.8 20.8 16.4 81 2.1 SW 6 7 3 4 1013.3 1011.7 0.0
10/04:00am 20.2 20.6 16.4 79 2.3 SW 9 11 5 6 1013.3 1011.7 0.0
10/03:30am 20.7 20.5 16.7 78 2.4 ESE 13 15 7 8 1013.0 1011.4 0.0
10/03:00am 21.1 22.2 16.7 76 2.7 ENE 6 9 3 5 1013.2 1011.6 0.0
10/02:30am 21.3 21.9 16.9 76 2.7 NNW 9 13 5 7 1013.3 1011.7 0.0
10/02:00am 21.5 22.1 16.9 75 2.8 N 9 15 5 8 1013.6 1012.0 0.0
10/01:30am 21.2 20.4 17.0 77 2.6 ENE 17 26 9 14 1014.1 1012.6 0.0
10/01:00am 21.1 19.2 16.7 76 2.7 E 22 30 12 16 1015.3 1013.8 0.0
10/12:30am 21.1 17.4 15.9 72 3.1 ESE 30 39 16 21 1016.2 1014.7 0.0
10/12:00am 20.8 15.2 15.4 71 3.2 ESE 39 56 21 30 1016.9 1015.3 0.0
 
Date/Time
EST
Temp
°C
App
Temp
°C
Dew
Point
°C
Rel
Hum
%
Delta-T
°C
Wind Press
QNH
hPa
Press
MSL
hPa
Rain since
9am
mm
Dir  Spd
km/h
Gust
km/h
Spd
kts
Gust
kts
09/11:43pm 20.7 14.6 15.3 71 3.2 ESE 41 59 22 32 1017.4 1015.8 0.0
09/11:30pm 21.7 15.8 15.8 69 3.6 ESE 41 57 22 31 1017.3 1015.7 0.0
09/11:09pm 25.2 21.0 16.1 57 5.6 ESE 33 72 18 39 1017.2 1015.6 0.0
09/11:00pm 25.9 23.4 16.2 55 6.0 E 24 33 13 18 1016.0 1014.5 0.0
09/10:30pm 26.0 24.2 16.0 54 6.2 ESE 20 26 11 14 1015.6 1014.1 0.0
09/10:00pm 26.2 25.9 16.4 54 6.1 ESE 13 17 7 9 1015.6 1014.1 0.0
09/09:30pm 27.7 28.0 16.0 49 7.3 S 9 11 5 6 1015.3 1013.8 0.0
09/09:00pm 24.7 24.4 16.4 60 5.1 NW 13 32 7 17 1015.2 1013.7 0.0
09/08:30pm 24.5 23.9 16.7 61 4.8 ENE 15 20 8 11 1013.5 1011.9 0.0
09/08:00pm 27.1 25.5 12.7 41 8.5 ENE 13 15 7 8 1012.9 1011.3 0.0
09/07:30pm 28.9 25.4 10.1 31 10.7 ESE 19 37 10 20 1013.6 1012.0 0.0
09/07:21pm 29.7 25.0 7.6 25 12.1 SSW 22 41 12 22 1013.7 1012.1 0.0
09/07:00pm 28.8 20.1 8.5 28 11.2 SW 44 65 24 35 1012.0 1010.5 0.0
09/06:34pm 29.3 24.4 12.7 36 9.9 SW 30 54 16 29 1013.0 1011.4 0.0
09/06:30pm 29.7 26.1 13.0 35 10.0 SW 24 44 13 24 1013.2 1011.6 0.0
09/06:00pm 32.5 30.8 13.7 32 11.5 ESE 15 20 8 11 1011.6 1010.1 0.0
09/05:30pm 33.0 30.2 12.6 29 12.3 ESE 19 24 10 13 1011.1 1009.6 0.0
09/05:00pm 35.1 32.5 13.3 27 13.4 ESE 19 28 10 15 1010.5 1009.0 0.0
09/04:30pm 35.1 32.5 13.9 28 13.1 ESE 20 32 11 17 1010.6 1009.1 0.0
09/04:00pm 35.7 33.9 14.4 28 13.3 ESE 17 30 9 16 1010.8 1009.3 0.0
09/03:30pm 35.4 32.9 13.5 26 13.5 SE 19 26 10 14 1011.1 1009.6 0.0
09/03:00pm 34.5 32.1 13.9 29 12.7 E 19 33 10 18 1011.5 1010.0 0.0
09/02:30pm 34.4 32.2 14.3 30 12.5 ESE 19 28 10 15 1011.9 1010.4 0.0
09/02:00pm 34.7 33.0 14.6 30 12.5 ESE 17 32 9 17 1012.3 1010.7 0.0
09/01:30pm 34.3 33.7 15.7 32 11.8 NE 13 20 7 11 1012.6 1011.0 0.0
09/01:00pm 32.5 31.8 15.5 36 10.7 SE 13 26 7 14 1013.1 1011.5 0.0
09/12:30pm 32.4 31.3 15.4 36 10.6 ESE 15 28 8 15 1013.3 1011.7 0.0
09/12:00pm 32.5 31.2 15.9 36 10.5 SE 17 24 9 13 1013.8 1012.2 0.0
09/11:30am 31.0 30.8 15.8 40 9.5 E 11 20 6 11 1014.0 1012.5 0.0
09/11:00am 30.9 31.1 17.6 45 8.6 ESE 13 20 7 11 1014.4 1012.9 0.0
09/10:30am 29.8 29.8 17.3 47 8.0 SE 13 19 7 10 1014.7 1013.2 0.0
09/10:00am 28.4 29.8 17.9 53 6.7 SE 7 15 4 8 1014.8 1013.3 0.0
09/09:30am 27.6 29.1 18.0 55 6.1 SE 7 15 4 8 1015.2 1013.7 0.0
09/09:00am 26.4 27.3 18.3 61 5.2 ENE 11 15 6 8 1015.3 1013.8 0.2
09/08:30am 25.3 26.1 18.2 64 4.5 E 11 15 6 8 1015.4 1013.9 0.2
09/08:00am 25.2 25.3 18.4 66 4.3 ESE 15 20 8 11 1015.4 1013.9 0.2
09/07:30am 24.5 25.1 18.7 70 3.7 SE 13 19 7 10 1015.2 1013.7 0.2
09/07:00am 23.9 24.4 18.3 71 3.6 SE 13 17 7 9 1015.1 1013.6 0.2
09/06:30am 23.1 23.4 17.8 72 3.3 SSE 13 17 7 9 1014.6 1013.1 0.2
09/06:00am 22.4 22.0 17.1 72 3.3 SSE 15 17 8 9 1014.2 1012.7 0.2
09/05:30am 22.2 22.5 17.8 76 2.8 SE 13 17 7 9 1013.6 1012.0 0.2
09/05:00am 21.9 22.4 16.6 72 3.3 SE 9 13 5 7 1012.9 1011.3 0.2
09/04:30am 22.3 21.9 16.3 69 3.7 SE 13 17 7 9 1012.3 1010.7 0.2
09/04:00am 22.1 22.3 15.7 67 3.9 SE 9 11 5 6 1011.5 1010.0 0.2
09/03:30am 22.6 23.0 15.2 63 4.5 ESE 7 9 4 5 1011.4 1009.9 0.2
09/03:00am 23.4 23.3 14.9 59 5.1 E 9 13 5 7 1011.2 1009.7 0.2
09/02:30am 23.8 22.7 14.2 55 5.7 E 13 17 7 9 1011.1 1009.6 0.2
09/02:00am 23.7 22.8 14.9 57 5.3 E 13 15 7 8 1011.3 1009.8 0.2
09/01:30am 23.4 23.3 16.0 63 4.5 ESE 11 15 6 8 1011.5 1010.0 0.2
09/01:00am 24.1 22.7 16.6 63 4.6 E 19 24 10 13 1011.5 1010.0 0.2
09/12:30am 24.2 22.7 16.7 63 4.7 E 20 28 11 15 1011.7 1010.2 0.2
09/12:00am 24.2 22.9 17.2 65 4.4 ESE 20 32 11 17 1012.3 1010.7 0.2
 
Date/Time
EST
Temp
°C
App
Temp
°C
Dew
Point
°C
Rel
Hum
%
Delta-T
°C
Wind Press
QNH
hPa
Press
MSL
hPa
Rain since
9am
mm
Dir  Spd
km/h
Gust
km/h
Spd
kts
Gust
kts
08/11:30pm 24.5 23.0 17.7 66 4.3 ESE 22 30 12 16 1012.8 1011.2 0.2
08/11:00pm 24.6 23.3 19.0 71 3.6 SE 24 30 13 16 1012.9 1011.3 0.2
08/10:30pm 24.4 24.8 19.9 76 2.9 SSE 17 32 9 17 1012.8 1011.2 0.2
08/10:00pm 24.0 24.1 19.1 74 3.2 E 17 20 9 11 1012.4 1010.8 0.2
08/09:30pm 24.2 24.4 18.6 71 3.6 N 15 20 8 11 1012.4 1010.8 0.2
08/09:00pm 26.4 26.2 16.6 55 6.1 N 13 20 7 11 1012.6 1011.0 0.0
08/08:30pm 27.6 26.1 16.2 49 7.1 WSW 19 32 10 17 1013.0 1011.4 0.0
08/08:00pm 30.0 30.3 17.8 48 7.9 NE 13 20 7 11 1011.6 1010.1 0.0
08/07:30pm 30.2 30.2 16.2 42 8.8 NNE 11 17 6 9 1010.9 1009.4 0.0
08/07:00pm 31.1 30.1 15.5 39 9.7 NE 15 19 8 10 1010.2 1008.7 0.0
08/06:30pm 32.3 31.4 14.9 35 10.8 NNE 13 17 7 9 1009.8 1008.2 0.0
08/06:00pm 33.5 33.6 11.4 26 13.1 WSW 2 7 1 4 1009.8 1008.2 0.0
08/05:30pm 34.0 32.3 11.2 25 13.5 W 11 17 6 9 1009.6 1008.0 0.0
08/05:00pm 34.5 32.2 11.6 25 13.7 WNW 15 20 8 11 1009.1 1007.5 0.0
08/04:30pm 35.2 32.3 10.9 23 14.4 WNW 17 26 9 14 1009.0 1007.4 0.0
08/04:00pm 35.7 32.7 10.7 22 14.8 NW 17 26 9 14 1009.1 1007.5 0.0
08/03:30pm 35.4 32.7 10.4 22 14.7 NNW 15 22 8 12 1009.2 1007.6 0.0
08/03:00pm 35.9 34.9 10.9 22 14.9 NE 7 13 4 7 1009.3 1007.7 0.0
08/02:30pm 34.5 32.2 10.4 23 14.1 NNE 13 20 7 11 1009.8 1008.2 0.0
08/02:00pm 35.7 32.9 11.4 23 14.5 N 17 26 9 14 1010.2 1008.7 0.0
08/01:30pm 35.5 33.4 11.2 23 14.5 NE 13 22 7 12 1010.6 1009.1 0.0
08/01:00pm 33.8 31.1 10.4 24 13.7 NE 15 24 8 13 1011.0 1009.5 0.0
08/12:30pm 33.6 30.5 10.2 24 13.6 N 17 26 9 14 1011.3 1009.8 0.0

Other Formats:

Comma delimited format used in spreadsheet applications
http://www.bom.gov.au/fwo/IDQ60801/IDQ60801.94397.axf

JavaScript Object Notation format (JSON) in row-major order
http://www.bom.gov.au/fwo/IDQ60801/IDQ60801.94397.json